Time;durP1;ratioP1;P1;durP2;ratioP2;P2;SDS_P1;SDS_P2;PMS_P1;PMS_P2;Temp;Humidity;BMP_temperature;BMP_pressure;BME280_temperature;BME280_humidity;BME280_pressure;Samples;Min_cycle;Max_cycle;Signal;HPM_P1;HPM_P2
2024/03/03 00:01:05;;;;;;;3.40;3.10;;;20.20;48.40;;;;;;5034893;28;20503;-76
2024/03/03 00:03:34;;;;;;;5.00;3.53;;;20.20;48.40;;;;;;5034170;28;20443;-77
2024/03/03 00:06:06;;;;;;;3.80;3.40;;;20.20;48.40;;;;;;5034820;28;20547;-76
2024/03/03 00:08:35;;;;;;;4.53;3.30;;;20.20;48.30;;;;;;5034578;28;20473;-76
2024/03/03 00:11:04;;;;;;;3.20;3.00;;;20.20;48.60;;;;;;5034428;28;20471;-76
2024/03/03 00:13:33;;;;;;;2.97;2.77;;;20.20;48.70;;;;;;5034466;28;20447;-76
2024/03/03 00:16:02;;;;;;;3.10;2.90;;;20.20;48.70;;;;;;5033617;28;20531;-77
2024/03/03 00:18:31;;;;;;;3.70;3.40;;;20.10;48.60;;;;;;5032017;28;20566;-76
2024/03/03 00:20:58;;;;;;;4.33;3.30;;;20.10;48.50;;;;;;5029350;28;20482;-77
2024/03/03 00:23:28;;;;;;;3.53;3.23;;;20.10;48.60;;;;;;5034477;28;20463;-77
2024/03/03 00:25:56;;;;;;;5.70;3.10;;;20.10;48.80;;;;;;5033807;28;20538;-77
2024/03/03 00:28:24;;;;;;;3.90;3.50;;;20.10;48.60;;;;;;5033600;28;20488;-77
2024/03/03 00:30:52;;;;;;;5.70;3.60;;;20.10;48.70;;;;;;5034787;28;20454;-77
2024/03/03 00:33:20;;;;;;;3.70;3.30;;;20.00;48.70;;;;;;5031720;28;20445;-77
2024/03/03 00:35:48;;;;;;;3.60;3.20;;;20.00;48.90;;;;;;5031634;28;20447;-77
2024/03/03 00:38:16;;;;;;;4.00;3.63;;;20.00;48.80;;;;;;5034666;28;20463;-76
2024/03/03 00:40:46;;;;;;;3.70;3.37;;;20.00;48.80;;;;;;5033072;28;20458;-77
2024/03/03 00:43:14;;;;;;;4.63;3.43;;;20.00;48.80;;;;;;5026081;28;20529;-77
2024/03/03 00:45:42;;;;;;;4.13;3.60;;;20.00;48.90;;;;;;5034098;28;20501;-76
2024/03/03 00:48:11;;;;;;;4.10;3.70;;;20.00;48.90;;;;;;5037974;28;20542;-77
2024/03/03 00:50:38;;;;;;;4.97;3.20;;;19.90;48.80;;;;;;5032205;28;20551;-76
2024/03/03 00:53:07;;;;;;;6.13;3.50;;;19.90;49.00;;;;;;5034180;28;20466;-76
2024/03/03 00:55:35;;;;;;;4.03;3.50;;;19.90;49.00;;;;;;5034122;28;20828;-77
2024/03/03 00:58:05;;;;;;;6.67;3.67;;;19.90;49.20;;;;;;5034187;28;20834;-76
2024/03/03 01:00:33;;;;;;;3.50;3.20;;;19.90;49.00;;;;;;5031901;28;20813;-76
2024/03/03 01:03:01;;;;;;;3.37;3.07;;;19.90;49.00;;;;;;5034058;28;20446;-77
2024/03/03 01:05:30;;;;;;;4.63;3.70;;;19.90;49.00;;;;;;5033452;28;20447;-76
2024/03/03 01:07:58;;;;;;;3.27;3.07;;;19.90;49.20;;;;;;5013751;28;20472;-77
2024/03/03 01:10:26;;;;;;;4.30;3.90;;;19.80;49.10;;;;;;5027804;28;20447;-77
2024/03/03 01:12:54;;;;;;;5.30;3.83;;;19.90;49.10;;;;;;5033915;28;20526;-77
2024/03/03 01:15:23;;;;;;;4.00;3.60;;;19.80;49.30;;;;;;5033327;28;20482;-76
2024/03/03 01:17:52;;;;;;;3.80;3.50;;;19.80;49.10;;;;;;5022382;28;20494;-76
2024/03/03 01:20:20;;;;;;;9.33;3.27;;;19.80;49.30;;;;;;5033002;28;20447;-76
2024/03/03 01:22:48;;;;;;;4.27;3.60;;;19.80;49.30;;;;;;5033266;28;20563;-76
2024/03/03 01:25:16;;;;;;;4.13;3.73;;;19.80;49.30;;;;;;5032676;28;20934;-77
2024/03/03 01:27:44;;;;;;;3.77;3.47;;;19.70;49.40;;;;;;5034132;28;20468;-76
2024/03/03 01:30:12;;;;;;;4.00;3.60;;;19.70;49.40;;;;;;5027220;28;20478;-77
2024/03/03 01:32:42;;;;;;;5.13;4.20;;;19.70;49.40;;;;;;5033129;28;20497;-77
2024/03/03 01:35:10;;;;;;;4.83;3.57;;;19.70;49.20;;;;;;5033050;28;20531;-76
2024/03/03 01:37:38;;;;;;;4.27;3.27;;;19.70;49.50;;;;;;5032687;28;20499;-76
2024/03/03 01:40:08;;;;;;;4.60;3.60;;;19.70;49.30;;;;;;5033214;28;20450;-76
2024/03/03 01:42:36;;;;;;;4.90;3.37;;;19.70;49.50;;;;;;5013245;28;20468;-76
2024/03/03 01:45:06;;;;;;;4.00;3.57;;;19.70;49.40;;;;;;5013514;28;20456;-76
2024/03/03 01:47:34;;;;;;;3.80;3.50;;;19.60;49.50;;;;;;5025538;28;20510;-76
2024/03/03 01:50:03;;;;;;;5.10;3.83;;;19.60;49.70;;;;;;5032416;28;20914;-77
2024/03/03 01:52:31;;;;;;;3.67;3.37;;;19.60;49.50;;;;;;5033193;28;20497;-77
2024/03/03 01:54:59;;;;;;;5.80;3.90;;;19.60;49.60;;;;;;5032475;28;20471;-76
2024/03/03 01:57:27;;;;;;;4.33;3.83;;;19.60;49.50;;;;;;5032465;28;20551;-76
2024/03/03 01:59:55;;;;;;;5.60;3.93;;;19.60;49.50;;;;;;5032797;28;20452;-77
2024/03/03 02:02:26;;;;;;;4.80;3.47;;;19.60;49.80;;;;;;5032352;28;20558;-77
2024/03/03 02:04:55;;;;;;;5.73;3.63;;;19.60;49.70;;;;;;5032742;28;20440;-77
2024/03/03 02:07:24;;;;;;;4.50;3.77;;;19.60;49.70;;;;;;5032438;28;20490;-77
2024/03/03 02:09:52;;;;;;;4.57;3.60;;;19.50;49.70;;;;;;5032058;28;20470;-76
2024/03/03 02:12:24;;;;;;;3.77;3.47;;;19.50;49.80;;;;;;5032514;28;20447;-76
2024/03/03 02:14:52;;;;;;;3.97;3.60;;;19.50;49.90;;;;;;5032445;28;20447;-77
2024/03/03 02:17:20;;;;;;;6.27;4.13;;;19.50;50.00;;;;;;5032123;28;20483;-77
2024/03/03 02:19:48;;;;;;;6.10;3.80;;;19.50;50.10;;;;;;5032241;28;21020;-77
2024/03/03 02:22:17;;;;;;;4.20;3.87;;;19.50;50.00;;;;;;5032033;28;20451;-77
2024/03/03 02:24:45;;;;;;;10.40;8.10;;;19.40;50.00;;;;;;5032233;28;20440;-77
2024/03/03 02:27:13;;;;;;;8.83;6.90;;;19.40;50.00;;;;;;5032513;28;20459;-77
2024/03/03 02:29:41;;;;;;;11.87;8.20;;;19.40;50.20;;;;;;5031894;28;20443;-77
2024/03/03 02:32:09;;;;;;;12.77;9.07;;;19.40;50.10;;;;;;5031798;28;20523;-77
2024/03/03 02:34:36;;;;;;;13.33;9.60;;;19.40;50.10;;;;;;5032073;28;20539;-77
2024/03/03 02:37:05;;;;;;;14.03;10.13;;;19.40;50.20;;;;;;5032383;28;20495;-77
2024/03/03 02:39:35;;;;;;;14.53;10.10;;;19.30;50.20;;;;;;5032057;28;20448;-77
2024/03/03 02:42:03;;;;;;;16.10;11.00;;;19.30;50.30;;;;;;5032427;28;20554;-77
2024/03/03 02:44:31;;;;;;;15.90;10.77;;;19.30;50.20;;;;;;5032063;28;20889;-77
2024/03/03 02:46:59;;;;;;;17.20;11.77;;;19.30;50.20;;;;;;5028622;28;20448;-77
2024/03/03 02:49:27;;;;;;;18.00;11.90;;;19.30;50.20;;;;;;5012479;28;21005;-76
2024/03/03 02:51:56;;;;;;;20.00;12.13;;;19.30;50.20;;;;;;5012258;28;21006;-77
2024/03/03 02:54:24;;;;;;;19.17;12.77;;;19.30;50.30;;;;;;5014915;28;20450;-76
2024/03/03 02:56:54;;;;;;;18.50;12.47;;;19.20;50.30;;;;;;5031905;28;20463;-77
2024/03/03 02:59:22;;;;;;;21.33;12.93;;;19.20;50.40;;;;;;5032198;28;20443;-77
2024/03/03 03:01:50;;;;;;;19.30;12.70;;;19.20;50.40;;;;;;5031896;28;20451;-76
2024/03/03 03:04:18;;;;;;;17.83;12.20;;;19.20;50.40;;;;;;5031556;28;20470;-77
2024/03/03 03:06:46;;;;;;;17.87;12.13;;;19.20;50.40;;;;;;5031797;28;20444;-75
2024/03/03 03:09:14;;;;;;;23.37;13.33;;;19.20;50.50;;;;;;5031588;28;20447;-76
2024/03/03 03:11:43;;;;;;;20.33;13.80;;;19.20;50.50;;;;;;5033782;28;20534;-75
2024/03/03 03:14:12;;;;;;;22.27;13.83;;;19.20;50.50;;;;;;5035137;28;20473;-75
2024/03/03 03:16:41;;;;;;;20.83;13.60;;;19.20;50.50;;;;;;5019262;28;20452;-76
2024/03/03 03:19:09;;;;;;;23.47;15.07;;;19.20;50.50;;;;;;5022186;28;20515;-77
2024/03/03 03:21:37;;;;;;;20.10;13.50;;;19.20;50.70;;;;;;5022878;28;20455;-77
2024/03/03 03:24:06;;;;;;;22.67;14.43;;;19.10;50.50;;;;;;5031197;28;20467;-76
2024/03/03 03:26:35;;;;;;;19.70;13.30;;;19.10;50.40;;;;;;5031300;28;20437;-77
2024/03/03 03:29:04;;;;;;;21.07;13.77;;;19.10;50.60;;;;;;5032031;28;20456;-78
2024/03/03 03:31:34;;;;;;;20.93;13.50;;;19.00;50.60;;;;;;5036627;28;20538;-75
2024/03/03 03:34:02;;;;;;;21.13;13.80;;;19.00;50.80;;;;;;5024062;28;20437;-77
2024/03/03 03:36:30;;;;;;;20.90;13.43;;;19.00;50.80;;;;;;5028716;28;20447;-75
2024/03/03 03:38:59;;;;;;;19.80;13.10;;;19.00;50.70;;;;;;5020638;28;20463;-77
2024/03/03 03:41:28;;;;;;;19.57;12.80;;;19.00;50.80;;;;;;5031389;28;20443;-76
2024/03/03 03:43:55;;;;;;;18.97;12.47;;;19.00;50.90;;;;;;5031369;28;20477;-76
2024/03/03 03:46:23;;;;;;;21.87;12.83;;;19.00;50.70;;;;;;5020012;28;20456;-77
2024/03/03 03:48:53;;;;;;;18.10;12.50;;;19.00;50.80;;;;;;5026645;28;20476;-77
2024/03/03 03:51:21;;;;;;;20.23;12.77;;;19.00;51.00;;;;;;5028046;28;20444;-77
2024/03/03 03:53:49;;;;;;;19.07;12.60;;;19.00;50.70;;;;;;5030142;28;20439;-76
2024/03/03 03:56:17;;;;;;;19.73;12.57;;;18.90;50.90;;;;;;5031542;28;20847;-77
2024/03/03 03:58:45;;;;;;;17.30;12.10;;;18.90;50.90;;;;;;5029015;28;20487;-77
2024/03/03 04:01:18;;;;;;;18.27;12.00;;;18.90;51.00;;;;;;5025628;28;20410;-77
2024/03/03 04:03:46;;;;;;;20.83;12.73;;;18.90;51.00;;;;;;5031729;28;20465;-76
2024/03/03 04:06:15;;;;;;;17.07;11.63;;;18.90;51.10;;;;;;5015725;28;20455;-76
2024/03/03 04:08:43;;;;;;;19.03;11.93;;;18.80;51.10;;;;;;5034347;28;20479;-75
2024/03/03 04:11:11;;;;;;;16.63;11.73;;;18.80;51.20;;;;;;5026750;28;20502;-76
2024/03/03 04:13:39;;;;;;;17.07;11.27;;;18.80;51.70;;;;;;5030805;28;20455;-77
2024/03/03 04:16:08;;;;;;;18.90;11.60;;;18.80;51.20;;;;;;5034731;28;20448;-76
2024/03/03 04:18:36;;;;;;;16.33;11.27;;;18.80;51.20;;;;;;5034152;28;20470;-77
2024/03/03 04:21:05;;;;;;;18.53;10.40;;;18.80;51.20;;;;;;5028864;28;20436;-77
2024/03/03 04:23:34;;;;;;;17.63;11.20;;;18.70;51.30;;;;;;5030753;28;20534;-75
2024/03/03 04:26:04;;;;;;;16.10;10.20;;;18.70;51.30;;;;;;5034048;28;20440;-74
2024/03/03 04:28:33;;;;;;;20.63;10.60;;;18.70;51.30;;;;;;5031556;28;20478;-74
2024/03/03 04:31:04;;;;;;;17.00;10.80;;;18.70;51.40;;;;;;5027393;28;20447;-75
2024/03/03 04:33:32;;;;;;;16.27;10.40;;;18.70;51.20;;;;;;5034274;28;20448;-74
2024/03/03 04:36:00;;;;;;;15.37;10.80;;;18.70;51.50;;;;;;5034593;28;20455;-75
2024/03/03 04:38:29;;;;;;;14.53;9.83;;;18.70;51.50;;;;;;5025379;28;20551;-76
2024/03/03 04:40:58;;;;;;;15.00;9.87;;;18.70;51.50;;;;;;5030198;28;20463;-75
2024/03/03 04:43:26;;;;;;;16.83;10.50;;;18.70;51.50;;;;;;5033927;28;20444;-75
2024/03/03 04:45:54;;;;;;;15.50;10.13;;;18.60;51.40;;;;;;5033992;28;20435;-76
2024/03/03 04:48:25;;;;;;;16.13;10.53;;;18.60;51.40;;;;;;5032255;28;20470;-75
2024/03/03 04:50:53;;;;;;;13.50;9.63;;;18.60;51.50;;;;;;5032282;28;20437;-76
2024/03/03 04:53:21;;;;;;;16.57;9.47;;;18.50;51.30;;;;;;5026199;28;20474;-76
2024/03/03 04:55:49;;;;;;;13.87;9.83;;;18.60;51.60;;;;;;5025407;28;20519;-75
2024/03/03 04:58:18;;;;;;;13.03;8.80;;;18.50;51.60;;;;;;5025651;28;20478;-75
2024/03/03 05:00:46;;;;;;;14.00;9.10;;;18.50;51.60;;;;;;5026396;28;20454;-75
2024/03/03 05:03:14;;;;;;;11.63;8.90;;;18.50;51.60;;;;;;5033582;28;20474;-75
2024/03/03 05:05:42;;;;;;;12.70;9.13;;;18.50;51.70;;;;;;5033329;28;20545;-73
2024/03/03 05:08:10;;;;;;;12.17;8.93;;;18.40;51.70;;;;;;5033626;28;20503;-75
2024/03/03 05:10:38;;;;;;;14.43;9.33;;;18.40;51.50;;;;;;5027190;28;20447;-75
2024/03/03 05:13:06;;;;;;;15.57;10.23;;;18.50;51.70;;;;;;5032218;28;20454;-76
2024/03/03 05:15:36;;;;;;;13.43;9.10;;;18.40;51.50;;;;;;5023777;28;20452;-76
2024/03/03 05:18:04;;;;;;;10.63;8.20;;;18.40;51.80;;;;;;5027656;28;20566;-77
2024/03/03 05:20:32;;;;;;;14.07;8.40;;;18.40;51.80;;;;;;5020212;28;20455;-76
2024/03/03 05:23:00;;;;;;;11.67;8.23;;;18.30;51.70;;;;;;5032918;28;20539;-76
2024/03/03 05:25:29;;;;;;;11.00;8.00;;;18.40;52.00;;;;;;5033386;28;20553;-76
2024/03/03 05:27:57;;;;;;;13.10;8.30;;;18.30;51.80;;;;;;5021952;28;20523;-76
2024/03/03 05:30:25;;;;;;;11.47;8.10;;;18.30;51.80;;;;;;5028797;28;20451;-76
2024/03/03 05:32:55;;;;;;;11.30;7.90;;;18.30;51.80;;;;;;5022173;28;20436;-77
2024/03/03 05:35:23;;;;;;;11.40;8.23;;;18.20;51.80;;;;;;5013277;28;20494;-76
2024/03/03 05:37:51;;;;;;;11.40;8.23;;;18.30;51.90;;;;;;5029838;28;20468;-76
2024/03/03 05:40:20;;;;;;;11.17;8.27;;;18.30;51.90;;;;;;5028739;28;20955;-76
2024/03/03 05:42:48;;;;;;;11.60;7.70;;;18.20;51.70;;;;;;5028473;28;20447;-76
2024/03/03 05:45:17;;;;;;;11.27;7.53;;;18.30;51.90;;;;;;5032374;28;20993;-76
2024/03/03 05:47:44;;;;;;;11.27;8.23;;;18.20;52.00;;;;;;5032806;28;20491;-76
2024/03/03 05:50:14;;;;;;;11.20;7.40;;;18.20;51.90;;;;;;5032879;28;20446;-76
2024/03/03 05:52:42;;;;;;;12.03;8.37;;;18.20;52.00;;;;;;5032774;28;20459;-77
2024/03/03 05:55:10;;;;;;;10.13;7.80;;;18.20;52.00;;;;;;5032388;28;20474;-76
2024/03/03 05:57:38;;;;;;;11.83;7.80;;;18.10;51.60;;;;;;5015379;28;20503;-76
2024/03/03 06:00:06;;;;;;;12.20;8.23;;;18.10;52.00;;;;;;5028059;28;20444;-75
2024/03/03 06:02:34;;;;;;;11.53;8.07;;;18.10;51.90;;;;;;5023747;28;20840;-75
2024/03/03 06:05:03;;;;;;;10.37;7.40;;;18.10;52.10;;;;;;5026525;28;20533;-75
2024/03/03 06:07:32;;;;;;;10.70;7.20;;;18.10;52.00;;;;;;5028941;28;20459;-77
2024/03/03 06:10:00;;;;;;;11.53;8.10;;;18.10;51.90;;;;;;5024518;28;20505;-75
2024/03/03 06:12:28;;;;;;;14.13;8.17;;;18.00;51.90;;;;;;5031871;28;20467;-75
2024/03/03 06:14:56;;;;;;;11.00;7.60;;;18.00;52.20;;;;;;5032224;28;20467;-76
2024/03/03 06:17:24;;;;;;;10.07;7.30;;;18.00;52.00;;;;;;5032271;28;20498;-76
2024/03/03 06:19:53;;;;;;;12.43;7.70;;;18.00;52.00;;;;;;5031413;28;20435;-76
2024/03/03 06:22:21;;;;;;;10.60;7.70;;;18.00;52.20;;;;;;5027227;28;20474;-75
2024/03/03 06:24:50;;;;;;;8.77;7.00;;;18.00;52.10;;;;;;5032184;28;20479;-76
2024/03/03 06:27:19;;;;;;;12.30;7.83;;;18.00;52.10;;;;;;5031988;28;21040;-76
2024/03/03 06:29:46;;;;;;;10.67;7.70;;;18.00;52.10;;;;;;5030013;28;20439;-76
2024/03/03 06:32:14;;;;;;;12.10;8.13;;;18.00;52.00;;;;;;5023970;28;20467;-76
2024/03/03 06:34:44;;;;;;;12.33;7.80;;;18.00;52.00;;;;;;5026386;28;20475;-76
2024/03/03 06:37:15;;;;;;;12.10;7.97;;;18.00;52.10;;;;;;5030837;28;20821;-77
2024/03/03 06:39:44;;;;;;;10.47;7.70;;;18.00;52.20;;;;;;5023044;28;20451;-76
2024/03/03 06:42:13;;;;;;;9.30;7.13;;;18.00;52.10;;;;;;5012310;28;20832;-76
2024/03/03 06:44:42;;;;;;;12.83;8.40;;;18.10;52.30;;;;;;5022291;28;20470;-76
2024/03/03 06:47:09;;;;;;;11.37;7.63;;;18.10;52.90;;;;;;5031777;28;20462;-75
2024/03/03 06:49:37;;;;;;;11.20;7.67;;;18.10;52.30;;;;;;5031785;28;20451;-76
2024/03/03 06:52:06;;;;;;;10.70;7.70;;;18.10;52.30;;;;;;5032466;28;20473;-77
2024/03/03 06:54:34;;;;;;;8.63;7.10;;;18.10;52.30;;;;;;5032455;28;20474;-76
2024/03/03 06:57:02;;;;;;;10.90;7.90;;;18.10;52.40;;;;;;5014570;28;20515;-75
2024/03/03 06:59:34;;;;;;;11.53;7.97;;;18.10;52.40;;;;;;5013367;28;20444;-77
2024/03/03 07:02:02;;;;;;;11.07;7.60;;;18.10;52.20;;;;;;5012816;28;20423;-76
2024/03/03 07:04:30;;;;;;;9.30;7.40;;;18.10;52.40;;;;;;5022992;28;20447;-76
2024/03/03 07:06:58;;;;;;;8.90;7.27;;;18.10;52.30;;;;;;5031298;28;20479;-75
2024/03/03 07:09:26;;;;;;;9.73;7.10;;;18.10;52.40;;;;;;5031912;28;20435;-77
2024/03/03 07:11:55;;;;;;;10.30;6.50;;;18.10;53.00;;;;;;5031468;28;20444;-76
2024/03/03 07:14:23;;;;;;;9.30;6.90;;;18.10;52.30;;;;;;5021762;28;20448;-74
2024/03/03 07:16:53;;;;;;;9.10;7.20;;;18.20;52.40;;;;;;5015287;28;20478;-76
2024/03/03 07:19:21;;;;;;;8.93;6.87;;;18.20;52.50;;;;;;5031670;28;20430;-77
2024/03/03 07:21:49;;;;;;;9.20;7.40;;;18.20;52.50;;;;;;5026454;28;20482;-76
2024/03/03 07:24:17;;;;;;;8.47;6.57;;;18.30;52.70;;;;;;5031516;28;20435;-76
2024/03/03 07:26:45;;;;;;;9.73;7.33;;;18.30;52.60;;;;;;5031106;28;20529;-75
2024/03/03 07:29:13;;;;;;;9.33;7.03;;;18.30;52.60;;;;;;5030936;28;20482;-77
2024/03/03 07:31:41;;;;;;;10.90;7.63;;;18.30;52.70;;;;;;5031176;28;20439;-76
2024/03/03 07:34:10;;;;;;;9.43;6.83;;;18.30;52.70;;;;;;5033004;28;20439;-76
2024/03/03 07:36:39;;;;;;;9.97;7.10;;;18.40;52.80;;;;;;5031691;28;20462;-76
2024/03/03 07:39:07;;;;;;;9.60;7.40;;;18.40;52.80;;;;;;5034892;28;20474;-75
2024/03/03 07:41:36;;;;;;;8.30;6.80;;;18.40;52.80;;;;;;5034815;28;20475;-76
2024/03/03 07:44:06;;;;;;;8.40;7.10;;;18.50;52.90;;;;;;5035079;28;20497;-76
2024/03/03 07:46:35;;;;;;;9.70;7.13;;;18.50;53.00;;;;;;5030551;28;20476;-75
2024/03/03 07:49:03;;;;;;;9.00;6.90;;;18.50;52.90;;;;;;5031048;28;20463;-77
2024/03/03 07:51:33;;;;;;;11.60;7.00;;;18.50;52.90;;;;;;5034980;28;20420;-75
2024/03/03 07:54:00;;;;;;;7.60;6.77;;;18.50;53.00;;;;;;5024797;28;20464;-76
2024/03/03 07:56:29;;;;;;;9.57;7.03;;;18.60;53.00;;;;;;5034043;28;20427;-76
2024/03/03 07:59:02;;;;;;;9.43;7.60;;;18.60;53.30;;;;;;5022740;28;20580;-75
2024/03/03 08:01:33;;;;;;;8.83;7.07;;;18.60;52.90;;;;;;5030543;28;20439;-77
2024/03/03 08:04:02;;;;;;;11.07;7.40;;;18.60;53.10;;;;;;5033973;28;20462;-76
2024/03/03 08:06:30;;;;;;;9.10;7.30;;;18.70;53.20;;;;;;5034453;28;20463;-76
2024/03/03 08:09:03;;;;;;;8.70;7.20;;;18.70;53.20;;;;;;5030070;28;20452;-77
2024/03/03 08:11:33;;;;;;;8.90;7.17;;;18.70;53.20;;;;;;5032981;28;20447;-76
2024/03/03 08:14:02;;;;;;;7.60;6.77;;;18.80;53.50;;;;;;5016337;28;20693;-76
2024/03/03 08:16:30;;;;;;;8.17;7.00;;;18.80;53.50;;;;;;5028103;28;20490;-76
2024/03/03 08:18:58;;;;;;;9.20;6.60;;;18.90;53.70;;;;;;5033795;28;20475;-78
2024/03/03 08:21:26;;;;;;;7.87;6.70;;;19.00;53.80;;;;;;5047041;28;20439;-76
2024/03/03 08:23:54;;;;;;;8.97;7.00;;;19.20;53.90;;;;;;5041174;28;20442;-77
2024/03/03 08:26:25;;;;;;;7.03;6.33;;;19.30;54.10;;;;;;5051808;28;20490;-77
2024/03/03 08:28:53;;;;;;;8.57;7.00;;;19.50;54.30;;;;;;5049366;28;20443;-77
2024/03/03 08:31:21;;;;;;;6.70;5.97;;;19.60;54.50;;;;;;5044152;28;20443;-78
2024/03/03 08:33:49;;;;;;;8.60;6.87;;;19.80;54.90;;;;;;5044777;28;20475;-77
2024/03/03 08:36:17;;;;;;;8.70;6.67;;;20.00;55.20;;;;;;5043472;28;20443;-77
2024/03/03 08:38:46;;;;;;;9.00;7.10;;;20.20;55.60;;;;;;5035410;28;20468;-76
2024/03/03 08:41:14;;;;;;;8.33;6.70;;;20.50;56.00;;;;;;5034635;28;20913;-76
2024/03/03 08:43:43;;;;;;;9.20;7.20;;;20.70;56.40;;;;;;5034377;28;20447;-75
2024/03/03 08:46:11;;;;;;;9.63;7.50;;;20.90;56.60;;;;;;5032261;28;20535;-76
2024/03/03 08:48:48;;;;;;;8.57;6.90;;;21.20;57.00;;;;;;5036210;28;20474;-75
2024/03/03 08:51:20;;;;;;;7.80;6.83;;;21.40;57.00;;;;;;5035738;28;20459;-77
2024/03/03 08:53:48;;;;;;;7.20;6.50;;;21.70;57.50;;;;;;5034208;28;20441;-75
2024/03/03 08:56:17;;;;;;;12.77;8.43;;;21.90;57.60;;;;;;5033745;28;20476;-76
2024/03/03 08:58:47;;;;;;;10.53;7.97;;;22.10;57.90;;;;;;5034080;28;20463;-77
2024/03/03 09:01:15;;;;;;;9.10;7.67;;;22.40;58.00;;;;;;5034286;28;20426;-75
2024/03/03 09:03:43;;;;;;;8.77;7.40;;;22.60;57.90;;;;;;5033452;28;20422;-77
2024/03/03 09:06:11;;;;;;;8.47;7.53;;;22.80;58.00;;;;;;5032139;28;20457;-76
2024/03/03 09:08:41;;;;;;;9.23;7.33;;;23.10;58.30;;;;;;5032622;28;20496;-77
2024/03/03 09:11:11;;;;;;;9.07;7.00;;;23.30;58.30;;;;;;5032879;28;20989;-77
2024/03/03 09:13:40;;;;;;;9.37;7.40;;;23.50;58.40;;;;;;5032315;28;20422;-77
2024/03/03 09:16:09;;;;;;;9.43;7.70;;;23.80;58.40;;;;;;5032250;28;20505;-76
2024/03/03 09:18:38;;;;;;;8.23;7.23;;;24.00;58.40;;;;;;5032374;28;20456;-77
2024/03/03 09:21:07;;;;;;;10.17;7.80;;;24.20;58.50;;;;;;5032415;28;20451;-77
2024/03/03 09:23:35;;;;;;;9.00;7.40;;;24.50;58.50;;;;;;5032520;28;20422;-76
2024/03/03 09:26:03;;;;;;;8.53;7.43;;;24.80;58.50;;;;;;5032560;28;20509;-77
2024/03/03 09:28:31;;;;;;;7.83;7.00;;;25.00;58.30;;;;;;5032266;28;20544;-77
2024/03/03 09:30:59;;;;;;;12.37;8.00;;;25.30;58.20;;;;;;5032467;28;20455;-77
2024/03/03 09:33:29;;;;;;;8.90;7.07;;;25.50;58.00;;;;;;5032064;28;20480;-78
2024/03/03 09:35:57;;;;;;;7.77;7.07;;;25.80;57.80;;;;;;5031904;28;20466;-77
2024/03/03 09:38:25;;;;;;;8.83;6.80;;;26.10;57.70;;;;;;5031975;28;20554;-77
2024/03/03 09:40:53;;;;;;;8.43;7.50;;;26.30;57.30;;;;;;5032266;28;20475;-77
2024/03/03 09:43:21;;;;;;;10.73;7.97;;;26.60;57.20;;;;;;5032185;28;20453;-77
2024/03/03 09:45:49;;;;;;;7.03;6.17;;;26.80;56.90;;;;;;5031981;28;20410;-77
2024/03/03 09:48:17;;;;;;;9.70;7.67;;;27.00;56.80;;;;;;5031887;28;20490;-77
2024/03/03 09:50:46;;;;;;;7.67;6.87;;;27.30;56.40;;;;;;5032184;28;20887;-78
2024/03/03 09:53:14;;;;;;;8.07;6.67;;;27.50;56.20;;;;;;5031933;28;20439;-76
2024/03/03 09:55:42;;;;;;;7.20;6.50;;;27.80;55.90;;;;;;5031863;28;20607;-77
2024/03/03 09:58:11;;;;;;;8.00;7.00;;;28.00;55.60;;;;;;5030793;28;20509;-76
2024/03/03 10:00:39;;;;;;;7.60;6.83;;;28.20;55.20;;;;;;5031631;28;20471;-77
2024/03/03 10:03:07;;;;;;;11.73;6.53;;;28.40;54.80;;;;;;5031574;28;20471;-76
2024/03/03 10:05:37;;;;;;;8.27;7.10;;;28.70;54.60;;;;;;5031411;28;20436;-77
2024/03/03 10:08:07;;;;;;;7.43;6.80;;;28.90;54.20;;;;;;5031431;28;20471;-76
2024/03/03 10:10:35;;;;;;;6.37;5.80;;;29.10;54.00;;;;;;5031459;28;20496;-76
2024/03/03 10:13:04;;;;;;;6.20;5.70;;;29.30;53.60;;;;;;5031380;28;20447;-75
2024/03/03 10:15:33;;;;;;;8.63;6.80;;;29.60;53.40;;;;;;5031262;28;20857;-77
2024/03/03 10:18:02;;;;;;;6.93;6.30;;;29.70;53.10;;;;;;5031456;28;20502;-77
2024/03/03 10:20:32;;;;;;;6.57;5.93;;;30.00;52.80;;;;;;5031766;28;20447;-77
2024/03/03 10:23:00;;;;;;;6.70;5.87;;;30.20;52.60;;;;;;5031711;28;20460;-77
2024/03/03 10:25:30;;;;;;;7.73;6.93;;;30.50;52.20;;;;;;5031428;28;20442;-77
2024/03/03 10:28:12;;;;;;;6.70;6.13;;;30.70;51.80;;;;;;5031310;28;20489;-77
2024/03/03 10:30:41;;;;;;;6.90;6.30;;;30.90;51.40;;;;;;5031678;28;20489;-77
2024/03/03 10:33:09;;;;;;;7.03;6.43;;;31.10;51.10;;;;;;5031358;28;20435;-77
2024/03/03 10:35:37;;;;;;;6.80;6.20;;;31.20;51.20;;;;;;5031268;28;20451;-76
2024/03/03 10:38:05;;;;;;;5.90;5.40;;;31.40;50.20;;;;;;5031075;28;20463;-77
2024/03/03 10:40:34;;;;;;;6.37;5.77;;;31.50;49.80;;;;;;5031107;28;20526;-78
2024/03/03 10:43:02;;;;;;;6.30;5.70;;;31.60;49.30;;;;;;5031597;28;20432;-77
2024/03/03 10:45:30;;;;;;;5.83;5.33;;;31.70;49.00;;;;;;5031200;28;20451;-77
2024/03/03 10:47:59;;;;;;;6.40;5.90;;;31.80;48.90;;;;;;5031026;28;20569;-77
2024/03/03 10:50:27;;;;;;;6.57;6.00;;;32.00;48.70;;;;;;5031120;28;20439;-79
2024/03/03 10:52:56;;;;;;;6.50;5.40;;;32.30;48.60;;;;;;5030814;28;20855;-77
2024/03/03 10:55:25;;;;;;;6.30;5.50;;;32.50;48.30;;;;;;5031318;28;20462;-77
2024/03/03 10:57:54;;;;;;;6.00;5.60;;;32.80;48.10;;;;;;5031276;28;20525;-77
2024/03/03 11:00:24;;;;;;;6.00;5.23;;;33.10;47.70;;;;;;5031243;28;20448;-78
2024/03/03 11:02:52;;;;;;;6.00;5.50;;;33.30;47.20;;;;;;5031206;28;20534;-76
2024/03/03 11:05:21;;;;;;;6.40;5.83;;;33.50;46.80;;;;;;5030926;28;20502;-77
2024/03/03 11:07:49;;;;;;;6.73;6.03;;;33.60;46.40;;;;;;5030691;28;20475;-77
2024/03/03 11:10:17;;;;;;;6.27;5.77;;;33.80;46.00;;;;;;5034877;28;20443;-77
2024/03/03 11:12:47;;;;;;;5.93;5.47;;;33.90;45.70;;;;;;5035146;28;20530;-77
2024/03/03 11:15:19;;;;;;;5.80;5.40;;;34.10;45.50;;;;;;5034604;28;21023;-77
2024/03/03 11:17:49;;;;;;;5.93;5.43;;;34.30;45.30;;;;;;5034799;28;20565;-77
2024/03/03 11:20:19;;;;;;;5.70;5.30;;;34.50;44.90;;;;;;5034592;28;20443;-76
2024/03/03 11:22:52;;;;;;;6.13;5.43;;;34.80;44.80;;;;;;5034765;28;20438;-77
2024/03/03 11:25:22;;;;;;;5.57;5.10;;;35.50;44.20;;;;;;5034468;28;20443;-76
2024/03/03 11:27:54;;;;;;;5.90;5.50;;;36.40;43.10;;;;;;5034581;28;20528;-76
2024/03/03 11:30:24;;;;;;;4.90;4.60;;;37.30;41.80;;;;;;5034639;28;20527;-77
2024/03/03 11:32:52;;;;;;;5.50;5.07;;;38.00;40.30;;;;;;5034568;28;20439;-78
2024/03/03 11:35:19;;;;;;;5.30;5.00;;;38.40;39.30;;;;;;5034472;28;20443;-77
2024/03/03 11:37:48;;;;;;;5.37;4.97;;;38.80;38.50;;;;;;5034589;28;20470;-75
2024/03/03 11:40:17;;;;;;;4.93;4.63;;;38.90;37.30;;;;;;5034099;28;20827;-77
2024/03/03 11:42:47;;;;;;;4.80;4.50;;;38.90;37.00;;;;;;5034353;28;20475;-77
2024/03/03 11:45:15;;;;;;;5.00;4.70;;;38.80;36.70;;;;;;5034661;28;20439;-76
2024/03/03 11:47:47;;;;;;;5.30;4.90;;;39.00;36.50;;;;;;5036810;28;20475;-77
2024/03/03 11:50:19;;;;;;;4.93;4.73;;;39.30;36.20;;;;;;5034047;28;20585;-77
2024/03/03 11:52:47;;;;;;;4.53;4.33;;;39.50;36.00;;;;;;5033864;28;20442;-78
2024/03/03 11:55:16;;;;;;;4.80;4.50;;;39.70;35.00;;;;;;5034309;28;20470;-77
2024/03/03 11:57:44;;;;;;;4.33;4.20;;;39.80;34.90;;;;;;5033903;28;20493;-77
2024/03/03 12:00:17;;;;;;;4.60;4.40;;;39.90;34.50;;;;;;5034218;28;20446;-77
2024/03/03 12:02:46;;;;;;;5.00;4.70;;;39.90;34.30;;;;;;5033697;28;20996;-75
2024/03/03 12:05:15;;;;;;;4.97;4.67;;;40.10;34.00;;;;;;5033856;28;20518;-76
2024/03/03 12:07:44;;;;;;;4.60;4.40;;;40.10;33.70;;;;;;5033979;28;20490;-77
2024/03/03 12:10:20;;;;;;;4.67;4.47;;;40.10;33.40;;;;;;5034273;28;20976;-77
2024/03/03 12:12:49;;;;;;;4.40;4.20;;;40.20;33.40;;;;;;5034257;28;20856;-77
2024/03/03 12:15:18;;;;;;;4.17;3.97;;;40.20;33.00;;;;;;5033819;28;20458;-77
2024/03/03 12:17:50;;;;;;;4.43;4.23;;;40.20;32.90;;;;;;5033829;28;20550;-76
2024/03/03 12:20:19;;;;;;;4.50;4.20;;;40.10;32.80;;;;;;5041323;23;20511;-80
2024/03/03 12:22:47;;;;;;;3.97;3.87;;;40.30;33.00;;;;;;5020454;28;20506;-80
2024/03/03 12:25:16;;;;;;;4.20;4.10;;;40.40;32.50;;;;;;5020754;28;20448;-81
2024/03/03 12:27:48;;;;;;;4.67;4.47;;;40.40;32.60;;;;;;5022553;28;20451;-81
2024/03/03 12:30:21;;;;;;;4.50;4.40;;;40.30;32.50;;;;;;5023305;28;20472;-82
2024/03/03 12:32:51;;;;;;;4.80;4.50;;;40.20;32.20;;;;;;5021810;28;20428;-81
2024/03/03 12:35:21;;;;;;;4.90;4.60;;;40.10;32.10;;;;;;5021513;28;20464;-83
2024/03/03 12:37:49;;;;;;;4.70;4.50;;;39.80;32.10;;;;;;5021788;28;20441;-83
2024/03/03 12:40:17;;;;;;;4.83;4.63;;;39.80;32.40;;;;;;5021170;28;20456;-83
2024/03/03 12:42:45;;;;;;;4.40;4.20;;;40.00;32.30;;;;;;5022716;28;20432;-83
2024/03/03 12:45:14;;;;;;;5.23;4.93;;;40.60;32.20;;;;;;5023178;28;20439;-83
2024/03/03 12:47:42;;;;;;;4.63;4.33;;;41.20;31.50;;;;;;5020987;28;20447;-83